sensor_id;sensor_type;location;lat;lon;timestamp;temperature;humidity
15072;DHT22;7635;56.696;13.002;2022-08-21T00:01:28;13.50;99.90
15072;DHT22;7635;56.696;13.002;2022-08-21T00:03:55;13.50;99.90
15072;DHT22;7635;56.696;13.002;2022-08-21T00:06:23;13.40;99.90
15072;DHT22;7635;56.696;13.002;2022-08-21T00:08:51;13.40;99.90
15072;DHT22;7635;56.696;13.002;2022-08-21T00:11:18;13.30;99.90
15072;DHT22;7635;56.696;13.002;2022-08-21T00:13:46;13.30;99.90
15072;DHT22;7635;56.696;13.002;2022-08-21T00:16:13;13.30;99.90
15072;DHT22;7635;56.696;13.002;2022-08-21T00:18:40;13.30;99.90
15072;DHT22;7635;56.696;13.002;2022-08-21T00:21:07;13.30;99.90
15072;DHT22;7635;56.696;13.002;2022-08-21T00:23:34;13.30;99.90
15072;DHT22;7635;56.696;13.002;2022-08-21T00:26:01;13.30;99.90
15072;DHT22;7635;56.696;13.002;2022-08-21T00:28:28;13.20;99.90
15072;DHT22;7635;56.696;13.002;2022-08-21T00:30:56;13.20;99.90
15072;DHT22;7635;56.696;13.002;2022-08-21T00:33:23;13.20;99.90
15072;DHT22;7635;56.696;13.002;2022-08-21T00:35:50;13.20;99.90
15072;DHT22;7635;56.696;13.002;2022-08-21T00:38:17;13.20;99.90
15072;DHT22;7635;56.696;13.002;2022-08-21T00:40:49;13.20;99.90
15072;DHT22;7635;56.696;13.002;2022-08-21T00:43:21;13.10;99.90
15072;DHT22;7635;56.696;13.002;2022-08-21T00:45:48;13.10;99.90
15072;DHT22;7635;56.696;13.002;2022-08-21T00:48:16;13.10;99.90
15072;DHT22;7635;56.696;13.002;2022-08-21T00:50:48;13.00;99.90
15072;DHT22;7635;56.696;13.002;2022-08-21T00:53:17;13.00;99.90
15072;DHT22;7635;56.696;13.002;2022-08-21T00:55:45;13.00;99.90
15072;DHT22;7635;56.696;13.002;2022-08-21T00:58:13;13.00;99.90
15072;DHT22;7635;56.696;13.002;2022-08-21T01:00:42;13.00;99.90
15072;DHT22;7635;56.696;13.002;2022-08-21T01:03:11;13.00;99.90
15072;DHT22;7635;56.696;13.002;2022-08-21T01:05:41;13.00;99.90
15072;DHT22;7635;56.696;13.002;2022-08-21T01:08:09;12.90;99.90
15072;DHT22;7635;56.696;13.002;2022-08-21T01:10:37;12.90;99.90
15072;DHT22;7635;56.696;13.002;2022-08-21T01:13:04;12.90;99.90
15072;DHT22;7635;56.696;13.002;2022-08-21T01:15:34;12.90;99.90
15072;DHT22;7635;56.696;13.002;2022-08-21T01:18:02;12.80;99.90
15072;DHT22;7635;56.696;13.002;2022-08-21T01:20:30;12.80;99.90
15072;DHT22;7635;56.696;13.002;2022-08-21T01:22:58;12.80;99.90
15072;DHT22;7635;56.696;13.002;2022-08-21T01:25:25;12.70;99.90
15072;DHT22;7635;56.696;13.002;2022-08-21T01:27:52;12.70;99.90
15072;DHT22;7635;56.696;13.002;2022-08-21T01:30:22;12.60;99.90
15072;DHT22;7635;56.696;13.002;2022-08-21T01:32:49;12.60;99.90
15072;DHT22;7635;56.696;13.002;2022-08-21T01:35:18;12.60;99.90
15072;DHT22;7635;56.696;13.002;2022-08-21T01:37:46;12.60;99.90
15072;DHT22;7635;56.696;13.002;2022-08-21T01:40:16;12.60;99.90
15072;DHT22;7635;56.696;13.002;2022-08-21T01:42:43;12.60;99.90
15072;DHT22;7635;56.696;13.002;2022-08-21T01:45:11;12.60;99.90
15072;DHT22;7635;56.696;13.002;2022-08-21T01:47:38;12.50;99.90
15072;DHT22;7635;56.696;13.002;2022-08-21T01:50:07;12.50;99.90
15072;DHT22;7635;56.696;13.002;2022-08-21T01:52:34;12.50;99.90
15072;DHT22;7635;56.696;13.002;2022-08-21T01:55:01;12.50;99.90
15072;DHT22;7635;56.696;13.002;2022-08-21T01:57:29;12.50;99.90
15072;DHT22;7635;56.696;13.002;2022-08-21T01:59:56;12.50;99.90
15072;DHT22;7635;56.696;13.002;2022-08-21T02:02:23;12.50;99.90
15072;DHT22;7635;56.696;13.002;2022-08-21T02:04:50;12.50;99.90
15072;DHT22;7635;56.696;13.002;2022-08-21T02:07:16;12.50;99.90
15072;DHT22;7635;56.696;13.002;2022-08-21T02:09:44;12.50;99.90
15072;DHT22;7635;56.696;13.002;2022-08-21T02:12:10;12.50;99.90
15072;DHT22;7635;56.696;13.002;2022-08-21T02:14:39;12.50;99.90
15072;DHT22;7635;56.696;13.002;2022-08-21T02:17:06;12.50;99.90
15072;DHT22;7635;56.696;13.002;2022-08-21T02:19:32;12.50;99.90
15072;DHT22;7635;56.696;13.002;2022-08-21T02:21:59;12.50;99.90
15072;DHT22;7635;56.696;13.002;2022-08-21T02:24:26;12.40;99.90
15072;DHT22;7635;56.696;13.002;2022-08-21T02:26:53;12.40;99.90
15072;DHT22;7635;56.696;13.002;2022-08-21T02:29:19;12.40;99.90
15072;DHT22;7635;56.696;13.002;2022-08-21T02:31:47;12.30;99.90
15072;DHT22;7635;56.696;13.002;2022-08-21T02:34:14;12.30;99.90
15072;DHT22;7635;56.696;13.002;2022-08-21T02:36:41;12.30;99.90
15072;DHT22;7635;56.696;13.002;2022-08-21T02:39:08;12.30;99.90
15072;DHT22;7635;56.696;13.002;2022-08-21T02:41:34;12.30;99.90
15072;DHT22;7635;56.696;13.002;2022-08-21T02:44:01;12.20;99.90
15072;DHT22;7635;56.696;13.002;2022-08-21T02:46:28;12.20;99.90
15072;DHT22;7635;56.696;13.002;2022-08-21T02:48:57;12.20;99.90
15072;DHT22;7635;56.696;13.002;2022-08-21T02:51:24;12.20;99.90
15072;DHT22;7635;56.696;13.002;2022-08-21T02:53:51;12.20;99.90
15072;DHT22;7635;56.696;13.002;2022-08-21T02:56:20;12.10;99.90
15072;DHT22;7635;56.696;13.002;2022-08-21T02:58:49;12.10;99.90
15072;DHT22;7635;56.696;13.002;2022-08-21T03:01:17;12.10;99.90
15072;DHT22;7635;56.696;13.002;2022-08-21T03:03:46;12.10;99.90
15072;DHT22;7635;56.696;13.002;2022-08-21T03:06:18;12.10;99.90
15072;DHT22;7635;56.696;13.002;2022-08-21T03:08:45;12.10;99.90
15072;DHT22;7635;56.696;13.002;2022-08-21T03:11:13;12.00;99.90
15072;DHT22;7635;56.696;13.002;2022-08-21T03:13:40;12.00;99.90
15072;DHT22;7635;56.696;13.002;2022-08-21T03:16:07;12.00;99.90
15072;DHT22;7635;56.696;13.002;2022-08-21T03:18:34;12.00;99.90
15072;DHT22;7635;56.696;13.002;2022-08-21T03:21:01;12.00;99.90
15072;DHT22;7635;56.696;13.002;2022-08-21T03:23:30;12.00;99.90
15072;DHT22;7635;56.696;13.002;2022-08-21T03:25:57;12.00;99.90
15072;DHT22;7635;56.696;13.002;2022-08-21T03:28:24;12.00;99.90
15072;DHT22;7635;56.696;13.002;2022-08-21T03:30:51;12.00;99.90
15072;DHT22;7635;56.696;13.002;2022-08-21T03:33:19;12.00;99.90
15072;DHT22;7635;56.696;13.002;2022-08-21T03:35:51;12.00;99.90
15072;DHT22;7635;56.696;13.002;2022-08-21T03:38:18;12.00;99.90
15072;DHT22;7635;56.696;13.002;2022-08-21T03:40:47;12.00;99.90
15072;DHT22;7635;56.696;13.002;2022-08-21T03:43:13;12.00;99.90
15072;DHT22;7635;56.696;13.002;2022-08-21T03:45:40;11.90;99.90
15072;DHT22;7635;56.696;13.002;2022-08-21T03:48:08;11.90;99.90
15072;DHT22;7635;56.696;13.002;2022-08-21T03:50:37;11.80;99.90
15072;DHT22;7635;56.696;13.002;2022-08-21T03:53:04;11.70;99.90
15072;DHT22;7635;56.696;13.002;2022-08-21T03:55:31;11.70;99.90
15072;DHT22;7635;56.696;13.002;2022-08-21T03:57:59;11.70;99.90
15072;DHT22;7635;56.696;13.002;2022-08-21T04:00:27;11.60;99.90
15072;DHT22;7635;56.696;13.002;2022-08-21T04:02:53;11.60;99.90
15072;DHT22;7635;56.696;13.002;2022-08-21T04:05:21;11.60;99.90
15072;DHT22;7635;56.696;13.002;2022-08-21T04:07:54;11.60;99.90
15072;DHT22;7635;56.696;13.002;2022-08-21T04:10:21;11.60;99.90
15072;DHT22;7635;56.696;13.002;2022-08-21T04:12:50;11.60;99.90
15072;DHT22;7635;56.696;13.002;2022-08-21T04:15:19;11.60;99.90
15072;DHT22;7635;56.696;13.002;2022-08-21T04:17:46;11.60;99.90
15072;DHT22;7635;56.696;13.002;2022-08-21T04:20:13;11.60;99.90
15072;DHT22;7635;56.696;13.002;2022-08-21T04:22:40;11.70;99.90
15072;DHT22;7635;56.696;13.002;2022-08-21T04:25:07;11.80;99.90
15072;DHT22;7635;56.696;13.002;2022-08-21T04:27:34;11.90;99.90
15072;DHT22;7635;56.696;13.002;2022-08-21T04:30:02;11.90;99.90
15072;DHT22;7635;56.696;13.002;2022-08-21T04:32:30;11.90;99.90
15072;DHT22;7635;56.696;13.002;2022-08-21T04:34:58;11.90;99.90
15072;DHT22;7635;56.696;13.002;2022-08-21T04:37:26;12.00;99.90
15072;DHT22;7635;56.696;13.002;2022-08-21T04:39:53;12.00;99.90
15072;DHT22;7635;56.696;13.002;2022-08-21T04:42:21;12.00;99.90
15072;DHT22;7635;56.696;13.002;2022-08-21T04:44:49;12.00;99.90
15072;DHT22;7635;56.696;13.002;2022-08-21T04:47:16;12.00;99.90
15072;DHT22;7635;56.696;13.002;2022-08-21T04:49:44;12.10;99.90
15072;DHT22;7635;56.696;13.002;2022-08-21T04:52:11;12.10;99.90
15072;DHT22;7635;56.696;13.002;2022-08-21T04:54:40;12.10;99.90
15072;DHT22;7635;56.696;13.002;2022-08-21T04:57:09;12.20;99.90
15072;DHT22;7635;56.696;13.002;2022-08-21T04:59:38;12.20;99.90
15072;DHT22;7635;56.696;13.002;2022-08-21T05:02:07;12.20;99.90
15072;DHT22;7635;56.696;13.002;2022-08-21T05:04:37;12.30;99.90
15072;DHT22;7635;56.696;13.002;2022-08-21T05:07:10;12.40;99.90
15072;DHT22;7635;56.696;13.002;2022-08-21T05:09:38;12.40;99.90
15072;DHT22;7635;56.696;13.002;2022-08-21T05:12:06;12.50;99.90
15072;DHT22;7635;56.696;13.002;2022-08-21T05:14:33;12.60;99.90
15072;DHT22;7635;56.696;13.002;2022-08-21T05:16:59;12.70;99.90
15072;DHT22;7635;56.696;13.002;2022-08-21T05:19:26;12.70;99.90
15072;DHT22;7635;56.696;13.002;2022-08-21T05:21:53;12.80;99.90
15072;DHT22;7635;56.696;13.002;2022-08-21T05:24:21;12.90;99.90
15072;DHT22;7635;56.696;13.002;2022-08-21T05:26:48;12.90;99.90
15072;DHT22;7635;56.696;13.002;2022-08-21T05:29:16;13.00;99.90
15072;DHT22;7635;56.696;13.002;2022-08-21T05:31:43;13.00;99.90
15072;DHT22;7635;56.696;13.002;2022-08-21T05:34:10;13.10;99.90
15072;DHT22;7635;56.696;13.002;2022-08-21T05:36:37;13.10;99.90
15072;DHT22;7635;56.696;13.002;2022-08-21T05:39:04;13.20;99.90
15072;DHT22;7635;56.696;13.002;2022-08-21T05:41:32;13.40;99.90
15072;DHT22;7635;56.696;13.002;2022-08-21T05:43:59;13.40;99.90
15072;DHT22;7635;56.696;13.002;2022-08-21T05:46:25;13.50;99.90
15072;DHT22;7635;56.696;13.002;2022-08-21T05:48:52;13.50;99.90
15072;DHT22;7635;56.696;13.002;2022-08-21T05:51:19;13.60;99.90
15072;DHT22;7635;56.696;13.002;2022-08-21T05:53:46;13.60;99.90
15072;DHT22;7635;56.696;13.002;2022-08-21T05:56:14;13.70;99.90
15072;DHT22;7635;56.696;13.002;2022-08-21T05:58:42;13.80;99.90
15072;DHT22;7635;56.696;13.002;2022-08-21T06:01:10;13.90;99.90
15072;DHT22;7635;56.696;13.002;2022-08-21T06:03:38;14.10;99.90
15072;DHT22;7635;56.696;13.002;2022-08-21T06:06:06;14.20;99.90
15072;DHT22;7635;56.696;13.002;2022-08-21T06:08:33;14.40;99.90
15072;DHT22;7635;56.696;13.002;2022-08-21T06:11:02;14.60;99.90
15072;DHT22;7635;56.696;13.002;2022-08-21T06:13:29;15.00;99.90
15072;DHT22;7635;56.696;13.002;2022-08-21T06:16:08;15.30;99.90
15072;DHT22;7635;56.696;13.002;2022-08-21T06:18:36;15.60;99.90
15072;DHT22;7635;56.696;13.002;2022-08-21T06:21:03;16.00;99.90
15072;DHT22;7635;56.696;13.002;2022-08-21T06:23:30;16.30;99.90
15072;DHT22;7635;56.696;13.002;2022-08-21T06:25:57;16.70;99.90
15072;DHT22;7635;56.696;13.002;2022-08-21T06:28:24;17.00;99.90
15072;DHT22;7635;56.696;13.002;2022-08-21T06:30:51;17.40;99.90
15072;DHT22;7635;56.696;13.002;2022-08-21T06:33:19;17.70;99.90
15072;DHT22;7635;56.696;13.002;2022-08-21T06:35:46;18.00;99.90
15072;DHT22;7635;56.696;13.002;2022-08-21T06:38:12;18.30;99.90
15072;DHT22;7635;56.696;13.002;2022-08-21T06:40:39;18.50;99.90
15072;DHT22;7635;56.696;13.002;2022-08-21T06:43:09;18.80;99.90
15072;DHT22;7635;56.696;13.002;2022-08-21T06:45:36;19.10;99.90
15072;DHT22;7635;56.696;13.002;2022-08-21T06:48:03;19.30;99.90
15072;DHT22;7635;56.696;13.002;2022-08-21T06:50:32;19.60;99.90
15072;DHT22;7635;56.696;13.002;2022-08-21T06:53:00;19.90;99.90
15072;DHT22;7635;56.696;13.002;2022-08-21T06:55:27;20.10;99.90
15072;DHT22;7635;56.696;13.002;2022-08-21T06:57:54;20.30;99.90
15072;DHT22;7635;56.696;13.002;2022-08-21T07:00:21;20.60;99.90
15072;DHT22;7635;56.696;13.002;2022-08-21T07:02:48;20.90;99.90
15072;DHT22;7635;56.696;13.002;2022-08-21T07:05:14;21.20;99.90
15072;DHT22;7635;56.696;13.002;2022-08-21T07:07:43;21.40;99.90
15072;DHT22;7635;56.696;13.002;2022-08-21T07:10:10;21.60;99.90
15072;DHT22;7635;56.696;13.002;2022-08-21T07:12:36;21.70;99.90
15072;DHT22;7635;56.696;13.002;2022-08-21T07:15:04;21.70;99.90
15072;DHT22;7635;56.696;13.002;2022-08-21T07:17:31;21.70;99.90
15072;DHT22;7635;56.696;13.002;2022-08-21T07:19:58;21.90;99.90
15072;DHT22;7635;56.696;13.002;2022-08-21T07:22:25;22.10;99.90
15072;DHT22;7635;56.696;13.002;2022-08-21T07:24:54;22.30;99.90
15072;DHT22;7635;56.696;13.002;2022-08-21T07:27:21;22.30;99.90
15072;DHT22;7635;56.696;13.002;2022-08-21T07:29:48;22.30;99.90
15072;DHT22;7635;56.696;13.002;2022-08-21T07:32:15;22.40;99.90
15072;DHT22;7635;56.696;13.002;2022-08-21T07:34:42;22.60;99.90
15072;DHT22;7635;56.696;13.002;2022-08-21T07:37:09;22.90;99.90
15072;DHT22;7635;56.696;13.002;2022-08-21T07:39:35;23.20;99.90
15072;DHT22;7635;56.696;13.002;2022-08-21T07:42:04;23.50;99.90
15072;DHT22;7635;56.696;13.002;2022-08-21T07:44:31;23.80;99.90
15072;DHT22;7635;56.696;13.002;2022-08-21T07:46:59;23.90;99.90
15072;DHT22;7635;56.696;13.002;2022-08-21T07:49:26;24.10;99.90
15072;DHT22;7635;56.696;13.002;2022-08-21T07:51:53;24.20;99.90
15072;DHT22;7635;56.696;13.002;2022-08-21T07:54:20;24.20;99.90
15072;DHT22;7635;56.696;13.002;2022-08-21T07:56:47;24.10;99.90
15072;DHT22;7635;56.696;13.002;2022-08-21T07:59:15;24.30;99.90
15072;DHT22;7635;56.696;13.002;2022-08-21T08:01:42;24.40;99.90
15072;DHT22;7635;56.696;13.002;2022-08-21T08:04:08;24.30;99.90
15072;DHT22;7635;56.696;13.002;2022-08-21T08:06:35;24.00;99.90
15072;DHT22;7635;56.696;13.002;2022-08-21T08:09:02;23.90;99.90
15072;DHT22;7635;56.696;13.002;2022-08-21T08:11:31;23.60;99.90
15072;DHT22;7635;56.696;13.002;2022-08-21T08:13:58;23.50;99.90
15072;DHT22;7635;56.696;13.002;2022-08-21T08:16:26;23.40;99.90
15072;DHT22;7635;56.696;13.002;2022-08-21T08:18:53;23.70;99.90
15072;DHT22;7635;56.696;13.002;2022-08-21T08:21:21;23.80;99.90
15072;DHT22;7635;56.696;13.002;2022-08-21T08:23:48;24.00;99.90
15072;DHT22;7635;56.696;13.002;2022-08-21T08:26:15;24.00;99.90
15072;DHT22;7635;56.696;13.002;2022-08-21T08:28:42;23.70;99.90
15072;DHT22;7635;56.696;13.002;2022-08-21T08:31:09;23.70;99.90
15072;DHT22;7635;56.696;13.002;2022-08-21T08:33:38;23.80;99.90
15072;DHT22;7635;56.696;13.002;2022-08-21T08:36:05;24.10;99.90
15072;DHT22;7635;56.696;13.002;2022-08-21T08:38:32;24.40;99.90
15072;DHT22;7635;56.696;13.002;2022-08-21T08:41:02;24.80;99.90
15072;DHT22;7635;56.696;13.002;2022-08-21T08:43:33;25.00;99.90
15072;DHT22;7635;56.696;13.002;2022-08-21T08:46:04;25.10;99.90
15072;DHT22;7635;56.696;13.002;2022-08-21T08:48:43;25.30;99.90
15072;DHT22;7635;56.696;13.002;2022-08-21T08:51:16;25.60;99.90
15072;DHT22;7635;56.696;13.002;2022-08-21T08:53:50;25.80;99.90
15072;DHT22;7635;56.696;13.002;2022-08-21T08:56:21;26.00;99.90
15072;DHT22;7635;56.696;13.002;2022-08-21T08:58:50;26.20;99.90
15072;DHT22;7635;56.696;13.002;2022-08-21T09:01:20;26.20;99.90
15072;DHT22;7635;56.696;13.002;2022-08-21T09:03:49;26.50;99.90
15072;DHT22;7635;56.696;13.002;2022-08-21T09:06:28;26.70;99.90
15072;DHT22;7635;56.696;13.002;2022-08-21T09:09:08;26.90;99.90
15072;DHT22;7635;56.696;13.002;2022-08-21T09:11:44;26.70;99.90
15072;DHT22;7635;56.696;13.002;2022-08-21T09:14:19;26.80;99.90
15072;DHT22;7635;56.696;13.002;2022-08-21T09:16:55;26.90;99.90
15072;DHT22;7635;56.696;13.002;2022-08-21T09:19:39;27.00;99.90
15072;DHT22;7635;56.696;13.002;2022-08-21T09:22:18;26.90;99.90
15072;DHT22;7635;56.696;13.002;2022-08-21T09:24:53;26.40;99.90
15072;DHT22;7635;56.696;13.002;2022-08-21T09:27:22;26.40;99.90
15072;DHT22;7635;56.696;13.002;2022-08-21T09:29:52;26.50;99.90
15072;DHT22;7635;56.696;13.002;2022-08-21T09:32:21;26.60;99.90
15072;DHT22;7635;56.696;13.002;2022-08-21T09:34:58;27.00;99.90
15072;DHT22;7635;56.696;13.002;2022-08-21T09:37:26;27.30;99.90
15072;DHT22;7635;56.696;13.002;2022-08-21T09:39:55;27.50;99.90
15072;DHT22;7635;56.696;13.002;2022-08-21T09:42:25;27.80;99.90
15072;DHT22;7635;56.696;13.002;2022-08-21T09:45:07;27.80;99.90
15072;DHT22;7635;56.696;13.002;2022-08-21T09:47:35;27.80;99.90
15072;DHT22;7635;56.696;13.002;2022-08-21T09:50:13;27.70;99.90
15072;DHT22;7635;56.696;13.002;2022-08-21T09:52:45;27.70;99.90
15072;DHT22;7635;56.696;13.002;2022-08-21T09:55:20;27.90;99.90
15072;DHT22;7635;56.696;13.002;2022-08-21T09:58:05;28.10;99.90
15072;DHT22;7635;56.696;13.002;2022-08-21T10:00:34;28.20;99.90
15072;DHT22;7635;56.696;13.002;2022-08-21T10:03:11;28.50;99.90
15072;DHT22;7635;56.696;13.002;2022-08-21T10:05:50;28.60;99.90
15072;DHT22;7635;56.696;13.002;2022-08-21T10:08:19;28.30;99.90
15072;DHT22;7635;56.696;13.002;2022-08-21T10:10:45;28.20;99.90
15072;DHT22;7635;56.696;13.002;2022-08-21T10:13:21;28.50;99.90
15072;DHT22;7635;56.696;13.002;2022-08-21T10:15:58;28.40;99.90
15072;DHT22;7635;56.696;13.002;2022-08-21T10:18:31;28.30;99.90
15072;DHT22;7635;56.696;13.002;2022-08-21T10:21:08;28.20;99.90
15072;DHT22;7635;56.696;13.002;2022-08-21T10:23:54;28.20;99.90
15072;DHT22;7635;56.696;13.002;2022-08-21T10:26:34;28.30;99.90
15072;DHT22;7635;56.696;13.002;2022-08-21T10:29:08;28.60;99.90
15072;DHT22;7635;56.696;13.002;2022-08-21T10:31:43;28.40;99.90
15072;DHT22;7635;56.696;13.002;2022-08-21T10:34:28;28.30;99.90
15072;DHT22;7635;56.696;13.002;2022-08-21T10:37:11;27.80;99.90
15072;DHT22;7635;56.696;13.002;2022-08-21T10:39:49;27.80;99.90
15072;DHT22;7635;56.696;13.002;2022-08-21T10:42:29;27.50;99.90
15072;DHT22;7635;56.696;13.002;2022-08-21T10:45:09;27.70;99.90
15072;DHT22;7635;56.696;13.002;2022-08-21T10:47:42;27.50;99.90
15072;DHT22;7635;56.696;13.002;2022-08-21T10:50:14;27.70;99.90
15072;DHT22;7635;56.696;13.002;2022-08-21T10:53:06;27.20;99.90
15072;DHT22;7635;56.696;13.002;2022-08-21T10:55:42;26.80;99.90
15072;DHT22;7635;56.696;13.002;2022-08-21T10:58:12;26.80;99.90
15072;DHT22;7635;56.696;13.002;2022-08-21T11:00:45;26.80;99.90
15072;DHT22;7635;56.696;13.002;2022-08-21T11:03:15;27.00;99.90
15072;DHT22;7635;56.696;13.002;2022-08-21T11:05:48;27.30;99.90
15072;DHT22;7635;56.696;13.002;2022-08-21T11:08:21;27.40;99.90
15072;DHT22;7635;56.696;13.002;2022-08-21T11:10:52;27.10;99.90
15072;DHT22;7635;56.696;13.002;2022-08-21T11:13:31;26.90;99.90
15072;DHT22;7635;56.696;13.002;2022-08-21T11:16:07;26.90;99.90
15072;DHT22;7635;56.696;13.002;2022-08-21T11:18:38;26.50;99.90
15072;DHT22;7635;56.696;13.002;2022-08-21T11:21:19;26.70;99.90
15072;DHT22;7635;56.696;13.002;2022-08-21T11:23:57;26.60;99.90
15072;DHT22;7635;56.696;13.002;2022-08-21T11:26:33;26.70;99.90
15072;DHT22;7635;56.696;13.002;2022-08-21T11:29:06;26.90;99.90
15072;DHT22;7635;56.696;13.002;2022-08-21T11:31:55;27.20;99.90
15072;DHT22;7635;56.696;13.002;2022-08-21T11:34:34;26.90;99.90
15072;DHT22;7635;56.696;13.002;2022-08-21T11:37:11;26.70;99.90
15072;DHT22;7635;56.696;13.002;2022-08-21T11:39:52;26.70;99.90
15072;DHT22;7635;56.696;13.002;2022-08-21T11:42:25;26.90;99.90
15072;DHT22;7635;56.696;13.002;2022-08-21T11:45:00;26.70;99.90
15072;DHT22;7635;56.696;13.002;2022-08-21T11:47:33;26.90;99.90
15072;DHT22;7635;56.696;13.002;2022-08-21T11:50:12;27.10;99.90
15072;DHT22;7635;56.696;13.002;2022-08-21T11:52:42;27.20;99.90
15072;DHT22;7635;56.696;13.002;2022-08-21T11:55:19;27.20;99.90
15072;DHT22;7635;56.696;13.002;2022-08-21T11:57:52;27.10;99.90
15072;DHT22;7635;56.696;13.002;2022-08-21T12:00:23;27.00;99.90
15072;DHT22;7635;56.696;13.002;2022-08-21T12:02:54;27.00;99.90
15072;DHT22;7635;56.696;13.002;2022-08-21T12:05:27;27.20;99.90
15072;DHT22;7635;56.696;13.002;2022-08-21T12:08:05;27.40;99.90
15072;DHT22;7635;56.696;13.002;2022-08-21T12:10:36;27.30;99.90
15072;DHT22;7635;56.696;13.002;2022-08-21T12:13:07;27.20;99.90
15072;DHT22;7635;56.696;13.002;2022-08-21T12:15:35;27.20;99.90
15072;DHT22;7635;56.696;13.002;2022-08-21T12:18:06;27.10;99.90
15072;DHT22;7635;56.696;13.002;2022-08-21T12:20:58;27.10;99.90
15072;DHT22;7635;56.696;13.002;2022-08-21T12:23:28;27.00;99.90
15072;DHT22;7635;56.696;13.002;2022-08-21T12:26:25;27.00;99.90
15072;DHT22;7635;56.696;13.002;2022-08-21T12:29:04;27.00;99.90
15072;DHT22;7635;56.696;13.002;2022-08-21T12:31:31;26.90;99.90
15072;DHT22;7635;56.696;13.002;2022-08-21T12:33:59;26.80;99.90
15072;DHT22;7635;56.696;13.002;2022-08-21T12:36:39;26.60;99.90
15072;DHT22;7635;56.696;13.002;2022-08-21T12:39:13;26.40;99.90
15072;DHT22;7635;56.696;13.002;2022-08-21T12:41:48;26.30;99.90
15072;DHT22;7635;56.696;13.002;2022-08-21T12:44:20;26.20;99.90
15072;DHT22;7635;56.696;13.002;2022-08-21T12:46:51;26.20;99.90
15072;DHT22;7635;56.696;13.002;2022-08-21T12:49:27;26.10;99.90
15072;DHT22;7635;56.696;13.002;2022-08-21T12:52:00;25.90;99.90
15072;DHT22;7635;56.696;13.002;2022-08-21T12:54:30;25.70;99.90
15072;DHT22;7635;56.696;13.002;2022-08-21T12:57:02;25.70;99.90
15072;DHT22;7635;56.696;13.002;2022-08-21T12:59:30;25.70;99.90
15072;DHT22;7635;56.696;13.002;2022-08-21T13:01:59;25.70;99.90
15072;DHT22;7635;56.696;13.002;2022-08-21T13:04:33;25.70;99.90
15072;DHT22;7635;56.696;13.002;2022-08-21T13:07:06;25.60;99.90
15072;DHT22;7635;56.696;13.002;2022-08-21T13:09:33;25.70;99.90
15072;DHT22;7635;56.696;13.002;2022-08-21T13:12:02;25.80;99.90
15072;DHT22;7635;56.696;13.002;2022-08-21T13:14:33;25.90;99.90
15072;DHT22;7635;56.696;13.002;2022-08-21T13:17:04;26.00;99.90
15072;DHT22;7635;56.696;13.002;2022-08-21T13:19:32;26.00;99.90
15072;DHT22;7635;56.696;13.002;2022-08-21T13:22:00;25.90;99.90
15072;DHT22;7635;56.696;13.002;2022-08-21T13:24:29;25.90;99.90
15072;DHT22;7635;56.696;13.002;2022-08-21T13:26:56;25.90;99.90
15072;DHT22;7635;56.696;13.002;2022-08-21T13:29:31;25.80;99.90
15072;DHT22;7635;56.696;13.002;2022-08-21T13:32:01;25.90;99.90
15072;DHT22;7635;56.696;13.002;2022-08-21T13:34:33;25.90;99.90
15072;DHT22;7635;56.696;13.002;2022-08-21T13:37:03;25.60;99.90
15072;DHT22;7635;56.696;13.002;2022-08-21T13:39:30;25.40;99.90
15072;DHT22;7635;56.696;13.002;2022-08-21T13:42:00;25.30;99.90
15072;DHT22;7635;56.696;13.002;2022-08-21T13:44:35;25.30;99.90
15072;DHT22;7635;56.696;13.002;2022-08-21T13:47:04;25.30;99.90
15072;DHT22;7635;56.696;13.002;2022-08-21T13:49:33;25.40;99.90
15072;DHT22;7635;56.696;13.002;2022-08-21T13:52:01;25.20;99.90
15072;DHT22;7635;56.696;13.002;2022-08-21T13:54:33;25.20;99.90
15072;DHT22;7635;56.696;13.002;2022-08-21T13:57:00;25.20;99.90
15072;DHT22;7635;56.696;13.002;2022-08-21T13:59:29;25.20;99.90
15072;DHT22;7635;56.696;13.002;2022-08-21T14:02:00;25.20;99.90
15072;DHT22;7635;56.696;13.002;2022-08-21T14:04:33;25.20;99.90
15072;DHT22;7635;56.696;13.002;2022-08-21T14:07:02;25.20;99.90
15072;DHT22;7635;56.696;13.002;2022-08-21T14:09:32;25.00;99.90
15072;DHT22;7635;56.696;13.002;2022-08-21T14:12:02;25.00;99.90
15072;DHT22;7635;56.696;13.002;2022-08-21T14:14:39;24.80;99.90
15072;DHT22;7635;56.696;13.002;2022-08-21T14:17:12;24.70;99.90
15072;DHT22;7635;56.696;13.002;2022-08-21T14:19:41;24.80;99.90
15072;DHT22;7635;56.696;13.002;2022-08-21T14:22:28;24.80;99.90
15072;DHT22;7635;56.696;13.002;2022-08-21T14:25:00;24.80;99.90
15072;DHT22;7635;56.696;13.002;2022-08-21T14:27:29;24.70;99.90
15072;DHT22;7635;56.696;13.002;2022-08-21T14:29:59;24.70;99.90
15072;DHT22;7635;56.696;13.002;2022-08-21T14:32:29;24.70;99.90
15072;DHT22;7635;56.696;13.002;2022-08-21T14:34:57;24.70;99.90
15072;DHT22;7635;56.696;13.002;2022-08-21T14:37:24;24.70;99.90
15072;DHT22;7635;56.696;13.002;2022-08-21T14:39:51;24.80;99.90
15072;DHT22;7635;56.696;13.002;2022-08-21T14:42:17;24.70;99.90
15072;DHT22;7635;56.696;13.002;2022-08-21T14:44:44;24.60;99.90
15072;DHT22;7635;56.696;13.002;2022-08-21T14:47:11;24.40;99.90
15072;DHT22;7635;56.696;13.002;2022-08-21T14:49:39;24.20;99.90
15072;DHT22;7635;56.696;13.002;2022-08-21T14:52:06;24.00;99.90
15072;DHT22;7635;56.696;13.002;2022-08-21T14:54:35;23.90;99.90
15072;DHT22;7635;56.696;13.002;2022-08-21T14:57:05;23.90;99.90
15072;DHT22;7635;56.696;13.002;2022-08-21T14:59:33;23.80;99.90
15072;DHT22;7635;56.696;13.002;2022-08-21T15:02:00;23.80;99.90
15072;DHT22;7635;56.696;13.002;2022-08-21T15:04:29;23.80;99.90
15072;DHT22;7635;56.696;13.002;2022-08-21T15:06:57;23.80;99.90
15072;DHT22;7635;56.696;13.002;2022-08-21T15:09:24;23.90;99.90
15072;DHT22;7635;56.696;13.002;2022-08-21T15:11:52;23.90;99.90
15072;DHT22;7635;56.696;13.002;2022-08-21T15:14:23;23.90;99.90
15072;DHT22;7635;56.696;13.002;2022-08-21T15:16:50;23.90;99.90
15072;DHT22;7635;56.696;13.002;2022-08-21T15:19:18;23.80;99.90
15072;DHT22;7635;56.696;13.002;2022-08-21T15:21:45;23.70;99.90
15072;DHT22;7635;56.696;13.002;2022-08-21T15:24:13;23.60;99.90
15072;DHT22;7635;56.696;13.002;2022-08-21T15:26:40;23.50;99.90
15072;DHT22;7635;56.696;13.002;2022-08-21T15:29:08;23.50;99.90
15072;DHT22;7635;56.696;13.002;2022-08-21T15:31:35;23.50;99.90
15072;DHT22;7635;56.696;13.002;2022-08-21T15:34:02;23.50;99.90
15072;DHT22;7635;56.696;13.002;2022-08-21T15:36:29;23.50;99.90
15072;DHT22;7635;56.696;13.002;2022-08-21T15:38:55;23.40;99.90
15072;DHT22;7635;56.696;13.002;2022-08-21T15:41:23;23.30;99.90
15072;DHT22;7635;56.696;13.002;2022-08-21T15:43:52;23.20;99.90
15072;DHT22;7635;56.696;13.002;2022-08-21T15:46:20;23.30;99.90